Terminal Aerodrome Forecast
Issued by NWS

Home | Current Version | Previous Version | Text Only | Print | Product List | Glossary On
Versions: 1 2 3 4 5 6 7 8 9 10 11 12 13
896
FTUS45 KABQ 300527
TAFFMN
TAF
KFMN 300527Z 3006/0106 31005KT P6SM BKN090
     FM301000 07006KT P6SM BKN080
     FM301800 27006KT P6SM VCSH BKN070
     FM302100 27009KT P6SM VCSH OVC070
     FM010200 15009KT P6SM OVC070=

USA.gov is the U.S. government's official web portal to all federal, state and local government web resources and services.